Time;durP1;ratioP1;P1;durP2;ratioP2;P2;SDS_P1;SDS_P2;PMS_P1;PMS_P2;Temp;Humidity;BMP_temperature;BMP_pressure;BME280_temperature;BME280_humidity;BME280_pressure;Samples;Min_cycle;Max_cycle;Signal;HPM_P1;HPM_P2
2023/01/28 00:02:12;;;;;;;13.27;8.90;;;2.70;99.90;;;;;;5050632;28;20066;-56
2023/01/28 00:04:39;;;;;;;10.52;8.50;;;2.70;99.90;;;;;;5049854;28;20045;-56
2023/01/28 00:07:04;;;;;;;;;;;2.70;99.90;;;;;;5051674;28;20044;-56
2023/01/28 00:09:29;;;;;;;;;;;2.70;99.90;;;;;;5052161;28;20004;-56
2023/01/28 00:11:55;;;;;;;;;;;2.70;99.90;;;;;;5037479;28;20058;-57
2023/01/28 00:14:20;;;;;;;;;;;2.70;99.90;;;;;;5051306;28;19916;-57
2023/01/28 00:16:46;;;;;;;;;;;2.70;99.90;;;;;;5051866;28;19970;-57
2023/01/28 00:19:11;;;;;;;;;;;2.70;99.90;;;;;;5050027;28;20389;-57
2023/01/28 00:21:37;;;;;;;;;;;2.70;99.90;;;;;;5051680;28;20015;-55
2023/01/28 00:24:02;;;;;;;;;;;2.70;99.90;;;;;;5050815;28;20290;-55
2023/01/28 00:26:28;;;;;;;;;;;2.70;99.90;;;;;;5051816;28;19917;-57
2023/01/28 00:28:53;;;;;;;;;;;2.70;99.90;;;;;;5051330;28;20502;-57
2023/01/28 00:31:20;;;;;;;;;;;2.70;99.90;;;;;;5051354;28;19923;-56
2023/01/28 00:33:46;;;;;;;;;;;2.70;99.90;;;;;;5050729;28;20213;-57
2023/01/28 00:36:12;;;;;;;;;;;2.70;99.90;;;;;;5051608;28;19917;-54
2023/01/28 00:38:38;;;;;;;;;;;2.70;99.90;;;;;;5051090;28;19928;-57
2023/01/28 00:41:06;;;;;;;;;;;2.60;99.90;;;;;;5051582;28;20393;-55
2023/01/28 00:43:32;;;;;;;;;;;2.70;99.90;;;;;;5050445;28;19939;-55
2023/01/28 00:45:57;;;;;;;;;;;2.70;99.90;;;;;;5051219;28;20405;-55
2023/01/28 00:48:23;;;;;;;;;;;2.70;99.90;;;;;;5050152;28;20029;-56
2023/01/28 00:50:48;;;;;;;;;;;2.70;99.90;;;;;;5051574;28;19924;-55
2023/01/28 00:53:14;;;;;;;;;;;2.70;99.90;;;;;;5050275;28;19927;-56
2023/01/28 00:55:39;;;;;;;;;;;2.70;99.90;;;;;;5051027;28;20003;-57
2023/01/28 00:58:04;;;;;;;;;;;2.70;99.90;;;;;;5050396;28;19917;-56
2023/01/28 01:00:30;;;;;;;;;;;2.70;99.90;;;;;;5048088;28;19943;-56
2023/01/28 01:02:55;;;;;;;;;;;2.60;99.90;;;;;;5030428;28;19994;-57
2023/01/28 01:05:21;;;;;;;;;;;2.60;99.90;;;;;;5050422;28;20019;-56
2023/01/28 01:07:46;;;;;;;;;;;2.60;99.90;;;;;;5049247;28;20370;-55
2023/01/28 01:10:14;;;;;;;;;;;2.60;99.90;;;;;;5050429;28;19943;-57
2023/01/28 01:12:39;;;;;;;;;;;2.60;99.90;;;;;;5049192;28;20431;-56
2023/01/28 01:15:09;;;;;;;;;;;2.60;99.90;;;;;;5049573;28;19924;-55
2023/01/28 01:17:39;;;;;;;;;;;2.60;99.90;;;;;;5049466;28;19920;-56
2023/01/28 01:20:05;;;;;;;;;;;2.60;99.90;;;;;;5065819;28;19970;-54
2023/01/28 01:22:35;;;;;;;;;;;2.60;99.90;;;;;;5041275;28;19916;-55
2023/01/28 01:25:00;;;;;;;;;;;2.60;99.90;;;;;;5049358;28;20447;-58
2023/01/28 01:27:26;;;;;;;;;;;2.60;99.90;;;;;;5049600;28;19924;-57
2023/01/28 01:29:51;;;;;;;;;;;2.60;99.90;;;;;;5044308;28;19971;-54
2023/01/28 01:32:17;;;;;;;;;;;2.60;99.90;;;;;;5030420;28;19924;-57
2023/01/28 01:34:43;;;;;;;;;;;2.60;99.90;;;;;;5042271;28;20289;-56
2023/01/28 01:37:09;;;;;;;;;;;2.60;99.90;;;;;;5050154;28;19921;-58
2023/01/28 01:39:35;;;;;;;;;;;2.60;99.90;;;;;;5050851;28;19975;-58
2023/01/28 01:42:01;;;;;;;;;;;2.60;99.90;;;;;;5050322;28;20353;-57
2023/01/28 01:44:45;;;;;;;;;;;2.60;99.90;;;;;;5049713;28;20375;-55
2023/01/28 01:47:10;;;;;;;;;;;2.60;99.90;;;;;;5033922;28;19984;-56
2023/01/28 01:49:36;;;;;;;;;;;2.60;99.90;;;;;;5030579;28;19917;-56
2023/01/28 01:52:06;;;;;;;;;;;2.50;99.90;;;;;;5030054;28;20405;-54
2023/01/28 01:54:32;;;;;;;;;;;2.50;99.90;;;;;;5029786;28;20275;-56
2023/01/28 01:56:58;;;;;;;;;;;2.50;99.90;;;;;;5040773;28;20250;-58
2023/01/28 01:59:26;;;;;;;;;;;2.50;99.90;;;;;;5049481;28;19990;-57
2023/01/28 02:01:52;;;;;;;;;;;2.50;99.90;;;;;;5045688;28;19917;-56
2023/01/28 02:04:20;;;;;;;;;;;2.50;99.90;;;;;;5046799;28;19970;-57
2023/01/28 02:06:46;;;;;;;;;;;2.40;99.90;;;;;;5050095;28;19924;-56
2023/01/28 02:09:22;;;;;;;;;;;2.40;99.90;;;;;;5049298;28;19924;-56
2023/01/28 02:11:48;;;;;;;;;;;2.40;99.90;;;;;;5048910;28;19921;-56
2023/01/28 02:14:13;;;;;;;;;;;2.40;99.90;;;;;;5049025;28;19916;-57
2023/01/28 02:16:39;;;;;;;;;;;2.40;99.90;;;;;;5049223;28;19928;-57
2023/01/28 02:19:06;;;;;;;;;;;2.40;99.90;;;;;;5049986;28;20305;-57
2023/01/28 02:21:48;;;;;;;;;;;2.40;99.90;;;;;;5049657;28;19955;-55
2023/01/28 02:24:20;;;;;;;;;;;2.40;99.90;;;;;;5048306;28;19994;-56
2023/01/28 02:27:04;;;;;;;;;;;2.30;99.90;;;;;;5050027;28;19916;-56
2023/01/28 02:29:35;;;;;;;;;;;2.30;99.90;;;;;;5050017;28;19917;-56
2023/01/28 02:32:04;;;;;;;;;;;2.30;99.90;;;;;;5049516;28;19917;-56
2023/01/28 02:34:37;;;;;;;;;;;2.30;99.90;;;;;;5048426;28;20003;-57
2023/01/28 02:37:08;;;;;;;;;;;2.30;99.90;;;;;;5049499;28;19923;-56
2023/01/28 02:39:42;;;;;;;;;;;2.30;99.90;;;;;;5049968;28;20309;-57
2023/01/28 02:42:12;;;;;;;;;;;2.30;99.90;;;;;;5048055;28;19932;-55
2023/01/28 02:44:37;;;;;;;;;;;2.30;99.90;;;;;;5053065;28;19990;-56
2023/01/28 02:49:53;;;;;;;;;;;2.30;99.90;;;;;;5053829;28;19917;-57
2023/01/28 02:52:19;;;;;;;;;;;2.30;99.90;;;;;;5053314;28;19923;-57
2023/01/28 02:54:44;;;;;;;;;;;2.30;99.90;;;;;;5052674;28;19917;-55
2023/01/28 02:57:28;;;;;;;;;;;2.20;99.90;;;;;;5052865;28;19917;-57
2023/01/28 03:00:14;;;;;;;;;;;2.30;99.90;;;;;;5053484;28;20328;-56
2023/01/28 03:02:39;;;;;;;;;;;2.20;99.90;;;;;;5052993;28;20285;-56
2023/01/28 03:05:23;;;;;;;;;;;2.30;99.90;;;;;;5051980;28;20011;-56
2023/01/28 03:07:49;;;;;;;;;;;2.20;99.90;;;;;;5052333;28;20011;-58
2023/01/28 03:10:18;;;;;;;;;;;2.20;99.90;;;;;;5053491;28;19932;-57
2023/01/28 03:37:59;;;;;;;;;;;2.20;99.90;;;;;;5048103;28;20382;-58
2023/01/28 03:40:25;;;;;;;;;;;2.20;99.90;;;;;;5032757;28;19917;-58
2023/01/28 03:42:52;;;;;;;;;;;2.20;99.90;;;;;;5032467;28;20042;-56
2023/01/28 03:45:20;;;;;;;;;;;2.20;99.90;;;;;;5031893;28;19925;-58
2023/01/28 03:47:45;;;;;;;;;;;2.20;99.90;;;;;;5039170;28;19917;-56
2023/01/28 03:50:11;;;;;;;;;;;2.10;99.90;;;;;;5052697;28;20487;-57
2023/01/28 03:52:37;;;;;;;;;;;2.10;99.90;;;;;;5051967;28;19924;-57
2023/01/28 03:55:12;;;;;;;;;;;2.10;99.90;;;;;;5049412;28;20397;-56
2023/01/28 03:57:37;;;;;;;;;;;2.10;99.90;;;;;;5051743;28;19924;-56
2023/01/28 04:00:03;;;;;;;;;;;2.10;99.90;;;;;;5051702;28;19920;-56
2023/01/28 04:02:29;;;;;;;;;;;2.10;99.90;;;;;;5051932;28;19916;-56
2023/01/28 04:04:57;;;;;;;;;;;2.10;99.90;;;;;;5051585;28;19928;-58
2023/01/28 04:07:23;;;;;;;;;;;2.10;99.90;;;;;;5050333;28;20007;-57
2023/01/28 04:09:48;;;;;;;;;;;2.10;99.90;;;;;;5050830;28;20486;-57
2023/01/28 04:12:14;;;;;;;;;;;2.10;99.90;;;;;;5050483;28;19924;-57
2023/01/28 04:14:39;;;;;;;;;;;2.10;99.90;;;;;;5049944;28;19920;-56
2023/01/28 04:17:06;;;;;;;;;;;2.10;99.90;;;;;;5051703;28;19924;-58
2023/01/28 04:19:36;;;;;;;;;;;2.10;99.90;;;;;;5052083;28;19923;-57
2023/01/28 04:22:03;;;;;;;;;;;2.10;99.90;;;;;;5030555;28;19924;-56
2023/01/28 04:24:28;;;;;;;;;;;2.10;99.90;;;;;;5030911;28;19960;-55
2023/01/28 04:26:54;;;;;;;;;;;2.10;99.90;;;;;;5031309;28;19967;-55
2023/01/28 04:29:19;;;;;;;;;;;2.00;99.90;;;;;;5031777;28;19924;-56
2023/01/28 04:31:44;;;;;;;;;;;2.00;99.90;;;;;;5047657;28;19921;-54
2023/01/28 04:34:10;;;;;;;;;;;2.00;99.90;;;;;;5050270;28;20394;-56
2023/01/28 04:36:35;;;;;;;;;;;2.10;99.90;;;;;;5051168;28;19967;-57
2023/01/28 04:39:01;;;;;;;;;;;2.10;99.90;;;;;;5050582;28;20007;-56
2023/01/28 04:41:27;;;;;;;;;;;2.10;99.90;;;;;;5051278;28;19920;-58
2023/01/28 04:43:52;;;;;;;;;;;2.00;99.90;;;;;;5050098;28;20788;-56
2023/01/28 04:46:18;;;;;;;;;;;2.10;99.90;;;;;;5037525;28;20008;-56
2023/01/28 04:48:43;;;;;;;;;;;2.10;99.90;;;;;;5031632;28;19917;-54
2023/01/28 04:51:09;;;;;;;;;;;2.10;99.90;;;;;;5050876;28;19917;-57
2023/01/28 04:53:34;;;;;;;;;;;2.10;99.90;;;;;;5050861;28;20325;-57
2023/01/28 04:56:00;;;;;;;;;;;2.10;99.90;;;;;;5051500;28;20348;-55
2023/01/28 04:58:26;;;;;;;;;;;2.10;99.90;;;;;;5050424;28;20003;-57
2023/01/28 05:00:55;;;;;;;;;;;2.10;99.90;;;;;;5050899;28;19916;-56
2023/01/28 05:03:21;;;;;;;;;;;2.10;99.90;;;;;;5029976;28;20310;-56
2023/01/28 05:05:46;;;;;;;;;;;2.10;99.90;;;;;;5030833;28;19921;-57
2023/01/28 05:08:12;;;;;;;;;;;2.00;99.90;;;;;;5030758;28;19964;-58
2023/01/28 05:10:39;;;;;;;;;;;2.00;99.90;;;;;;5049601;28;19920;-56
2023/01/28 05:13:05;;;;;;;;;;;2.10;99.90;;;;;;5049644;28;20412;-54
2023/01/28 05:15:30;;;;;;;;;;;2.10;99.90;;;;;;5049889;28;19920;-56
2023/01/28 05:17:56;;;;;;;;;;;2.10;99.90;;;;;;5050322;28;19920;-58
2023/01/28 05:20:21;;;;;;;;;;;2.10;99.90;;;;;;5050806;28;19939;-55
2023/01/28 05:22:47;;;;;;;;;;;2.00;99.90;;;;;;5035958;28;19944;-56
2023/01/28 05:25:13;;;;;;;;;;;2.00;99.90;;;;;;5029847;28;19920;-57
2023/01/28 05:27:38;;;;;;;;;;;2.00;99.90;;;;;;5029886;28;20301;-57
2023/01/28 05:30:05;;;;;;;;;;;2.00;99.90;;;;;;5030626;28;19924;-57
2023/01/28 05:32:31;;;;;;;;;;;2.00;99.90;;;;;;5030554;28;20080;-56
2023/01/28 05:34:56;;;;;;;;;;;1.90;99.90;;;;;;5044073;28;19952;-56
2023/01/28 05:37:22;;;;;;;;;;;1.90;99.90;;;;;;5050124;28;19963;-56
2023/01/28 05:39:47;;;;;;;;;;;1.90;99.90;;;;;;5050528;28;20366;-55
2023/01/28 05:42:14;;;;;;;;;;;1.90;99.90;;;;;;5049862;28;19924;-54
2023/01/28 05:44:40;;;;;;;;;;;1.90;99.90;;;;;;5065324;28;19942;-57
2023/01/28 05:47:05;;;;;;;;;;;1.90;99.90;;;;;;5049954;28;20421;-55
2023/01/28 05:49:31;;;;;;;;;;;1.90;99.90;;;;;;5049965;28;20329;-57
2023/01/28 05:51:56;;;;;;;;;;;1.90;99.90;;;;;;5050056;28;20003;-56
2023/01/28 05:54:22;;;;;;;;;;;1.90;99.90;;;;;;5049227;28;19917;-57
2023/01/28 05:56:47;;;;;;;;;;;1.90;99.90;;;;;;5032124;28;19960;-55
2023/01/28 05:59:13;;;;;;;;;;;1.90;99.90;;;;;;5034353;28;19917;-55
2023/01/28 06:01:38;;;;;;;;;;;1.90;99.90;;;;;;5049991;28;20449;-57
2023/01/28 06:04:04;;;;;;;;;;;1.90;99.90;;;;;;5049331;28;20003;-54
2023/01/28 06:06:30;;;;;;;;;;;1.90;99.90;;;;;;5050056;28;19924;-56
2023/01/28 06:08:55;;;;;;;;;;;2.00;99.90;;;;;;5049548;28;20072;-57
2023/01/28 06:11:20;;;;;;;;;;;1.90;99.90;;;;;;5049353;28;20282;-56
2023/01/28 06:13:46;;;;;;;;;;;1.90;99.90;;;;;;5049497;28;19916;-57
2023/01/28 06:16:11;;;;;;;;;;;1.90;99.90;;;;;;5049964;28;19924;-56
2023/01/28 06:18:37;;;;;;;;;;;1.90;99.90;;;;;;5052215;28;20377;-57
2023/01/28 06:21:02;;;;;;;;;;;1.90;99.90;;;;;;5053936;28;20013;-54
2023/01/28 06:23:28;;;;;;;;;;;1.90;99.90;;;;;;5053045;28;20004;-55
2023/01/28 06:25:54;;;;;;;;;;;1.90;99.90;;;;;;5053512;28;20449;-56
2023/01/28 06:28:20;;;;;;;;;;;1.90;99.90;;;;;;5053911;28;19917;-57
2023/01/28 06:30:49;;;;;;;;;;;1.90;99.90;;;;;;5052577;28;19916;-56
2023/01/28 06:33:14;;;;;;;;;;;1.90;99.90;;;;;;5053054;28;19921;-57
2023/01/28 06:35:40;;;;;;;;;;;1.90;99.90;;;;;;5053755;28;19967;-54
2023/01/28 06:38:06;;;;;;;;;;;1.90;99.90;;;;;;5053503;28;20031;-57
2023/01/28 06:40:31;;;;;;;;;;;1.90;99.90;;;;;;5053428;28;20422;-56
2023/01/28 06:42:57;;;;;;;;;;;1.90;99.90;;;;;;5052804;28;20012;-55
2023/01/28 06:45:22;;;;;;;;;;;1.90;99.90;;;;;;5052786;28;20343;-56
2023/01/28 06:47:48;;;;;;;;;;;1.80;99.90;;;;;;5053028;28;19974;-55
2023/01/28 06:50:13;;;;;;;;;;;1.80;99.90;;;;;;5053103;28;20254;-56
2023/01/28 06:52:40;;;;;;;;;;;1.80;99.90;;;;;;5033256;28;19921;-57
2023/01/28 06:55:06;;;;;;;;;;;1.80;99.90;;;;;;5032105;28;19921;-55
2023/01/28 06:57:31;;;;;;;;;;;1.80;99.90;;;;;;5049387;28;20390;-57
2023/01/28 06:59:57;;;;;;;;;;;1.80;99.90;;;;;;5053126;28;19920;-56
2023/01/28 07:02:22;;;;;;;;;;;1.80;99.90;;;;;;5052333;28;19986;-56
2023/01/28 07:04:48;;;;;;;;;;;1.90;99.90;;;;;;5052308;28;19982;-57
2023/01/28 07:07:13;;;;;;;;;;;1.90;99.90;;;;;;5063313;28;19924;-57
2023/01/28 07:09:38;;;;;;;;;;;1.90;99.90;;;;;;5049121;28;20405;-57
2023/01/28 07:12:04;;;;;;;;;;;1.80;99.90;;;;;;5052736;28;20013;-56
2023/01/28 07:14:30;;;;;;;;;;;1.90;99.90;;;;;;5052441;28;20196;-56
2023/01/28 07:16:56;;;;;;;;;;;1.90;99.90;;;;;;5051588;28;19924;-56
2023/01/28 07:19:21;;;;;;;;;;;1.90;99.90;;;;;;5047725;28;19997;-57
2023/01/28 07:21:47;;;;;;;;;;;1.90;99.90;;;;;;5050147;28;19920;-57
2023/01/28 07:24:12;;;;;;;;;;;1.90;99.90;;;;;;5050875;28;20301;-57
2023/01/28 07:26:37;;;;;;;;;;;1.90;99.90;;;;;;5052875;28;19982;-54
2023/01/28 07:29:03;;;;;;;;;;;1.90;99.90;;;;;;5051721;28;19917;-57
2023/01/28 07:31:28;;;;;;;;;;;1.90;99.90;;;;;;5052404;28;19923;-57
2023/01/28 07:33:54;;;;;;;;;;;1.90;99.90;;;;;;5051661;28;20198;-56
2023/01/28 07:36:19;;;;;;;;;;;1.90;99.90;;;;;;5052681;28;20004;-57
2023/01/28 07:38:45;;;;;;;;;;;2.00;99.90;;;;;;5051663;28;20286;-58
2023/01/28 07:41:10;;;;;;;;;;;2.00;99.90;;;;;;5051162;28;19925;-56
2023/01/28 07:43:36;;;;;;;;;;;2.00;99.90;;;;;;5045185;28;19952;-56
2023/01/28 07:46:01;;;;;;;;;;;1.90;99.90;;;;;;5032860;28;19917;-57
2023/01/28 07:48:27;;;;;;;;;;;1.90;99.90;;;;;;5045891;28;19920;-57
2023/01/28 07:50:52;;;;;;;;;;;1.90;99.90;;;;;;5051493;28;19923;-56
2023/01/28 07:53:19;;;;;;;;;;;1.90;99.90;;;;;;5042622;28;20392;-57
2023/01/28 07:55:44;;;;;;;;;;;1.90;99.90;;;;;;5053826;28;19925;-58
2023/01/28 07:58:10;;;;;;;;;;;2.00;99.90;;;;;;5051905;28;20275;-55
2023/01/28 08:00:36;;;;;;;;;;;1.90;99.90;;;;;;5052197;28;20050;-56
2023/01/28 08:03:06;;;;;;;;;;;1.90;99.90;;;;;;5051089;28;19916;-58
2023/01/28 08:05:48;;;;;;;;;;;1.90;99.90;;;;;;5052178;28;19924;-56
2023/01/28 08:08:14;;;;;;;;;;;1.90;99.90;;;;;;5051246;28;20439;-55
2023/01/28 08:10:40;;;;;;;;;;;1.90;99.90;;;;;;5047509;28;19920;-58
2023/01/28 08:13:05;;;;;;;;;;;1.90;99.90;;;;;;5049370;28;19921;-54
2023/01/28 08:15:31;;;;;;;;;;;1.90;99.90;;;;;;5051961;28;19923;-56
2023/01/28 08:17:57;;;;;;;;;;;2.00;99.90;;;;;;5051507;28;20431;-57
2023/01/28 08:20:24;;;;;;;;;;;2.30;99.90;;;;;;5051440;28;19952;-56
2023/01/28 08:22:49;;;;;;;;;;;2.90;99.90;;;;;;5051490;28;19920;-56
2023/01/28 08:25:15;;;;;;;;;;;3.30;99.90;;;;;;5051047;28;19928;-57
2023/01/28 08:27:40;;;;;;;;;;;3.30;99.90;;;;;;5051542;28;20018;-56
2023/01/28 08:30:08;;;;;;;;;;;3.30;99.90;;;;;;5051772;28;19924;-58
2023/01/28 08:32:33;;;;;;;;;;;3.20;99.90;;;;;;5051336;28;19921;-57
2023/01/28 08:34:59;;;;;;;;;;;3.20;99.90;;;;;;5050774;28;19927;-56
2023/01/28 08:37:24;;;;;;;;;;;3.20;99.90;;;;;;5051193;28;19924;-55
2023/01/28 08:39:49;;;;;;;;;;;3.10;99.90;;;;;;5050943;28;20332;-56
2023/01/28 08:42:15;;;;;;;;;;;2.90;99.90;;;;;;5050717;28;20405;-56
2023/01/28 08:44:41;;;;;;;;;;;2.80;99.90;;;;;;5050242;28;20011;-57
2023/01/28 08:47:06;;;;;;;;;;;2.80;99.90;;;;;;5050292;28;19917;-57
2023/01/28 08:49:32;;;;;;;;;;;2.80;99.90;;;;;;5048689;28;19917;-55
2023/01/28 08:51:58;;;;;;;;;;;2.80;99.90;;;;;;5038466;28;19923;-57
2023/01/28 08:54:23;;;;;;;;;;;2.80;99.90;;;;;;5050210;28;19916;-56
2023/01/28 08:56:50;;;;;;;;;;;2.90;99.90;;;;;;5050839;28;19923;-56
2023/01/28 08:59:16;;;;;;;;;;;2.90;99.90;;;;;;5050653;28;19921;-55
2023/01/28 09:01:41;;;;;;;;;;;3.40;99.90;;;;;;5050554;28;19923;-57
2023/01/28 09:04:07;;;;;;;;;;;3.80;99.90;;;;;;5049554;28;20019;-57
2023/01/28 09:06:32;;;;;;;;;;;4.60;99.90;;;;;;5050964;28;19917;-54
2023/01/28 09:08:58;;;;;;;;;;;6.30;99.90;;;;;;5050258;28;19920;-58
2023/01/28 09:11:24;;;;;;;;;;;8.40;99.90;;;;;;5050560;28;19916;-56
2023/01/28 09:13:50;;;;;;;;;;;10.00;99.90;;;;;;5049675;28;20059;-56
2023/01/28 09:16:15;;;;;;;;;;;11.40;99.90;;;;;;5050206;28;19917;-55
2023/01/28 09:18:41;;;;;;;;;;;12.60;97.80;;;;;;5048575;28;20267;-55
2023/01/28 09:21:06;;;;;;;;;;;13.20;97.00;;;;;;5050905;28;20366;-57
2023/01/28 09:23:36;;;;;;;;;;;13.90;93.70;;;;;;5045824;28;19920;-58
2023/01/28 09:26:02;;;;;;;;;;;14.60;91.70;;;;;;5045203;28;19921;-57
2023/01/28 09:28:28;;;;;;;;;;;14.80;88.10;;;;;;5042242;28;19920;-57
2023/01/28 09:31:04;;;;;;;;;;;15.00;80.80;;;;;;5050551;28;19995;-58
2023/01/28 09:33:30;;;;;;;;;;;15.20;78.50;;;;;;5031796;28;19927;-58
2023/01/28 09:35:58;;;;;;;;;;;15.40;78.20;;;;;;5050123;28;19917;-57
2023/01/28 09:38:23;;;;;;;;;;;15.20;72.90;;;;;;5050104;28;19964;-55
2023/01/28 09:40:49;;;;;;;;;;;14.50;73.00;;;;;;5050181;28;20009;-57
2023/01/28 09:43:33;;;;;;;;;;;13.50;71.20;;;;;;5049397;28;19917;-57
2023/01/28 09:46:01;;;;;;;;;;;12.90;72.70;;;;;;5048526;28;19964;-57
2023/01/28 09:48:31;;;;;;;;;;;12.30;73.70;;;;;;5050226;28;19916;-57
2023/01/28 09:50:57;;;;;;;;;;;11.70;76.10;;;;;;5044193;28;19951;-57
2023/01/28 09:53:24;;;;;;;;;;;11.10;79.00;;;;;;5044800;28;19921;-57
2023/01/28 09:56:10;;;;;;;;;;;10.80;78.50;;;;;;5046525;28;20377;-57
2023/01/28 09:58:35;;;;;;;;;;;10.30;80.80;;;;;;5048892;28;19923;-58
2023/01/28 10:01:04;;;;;;;;;;;9.70;85.90;;;;;;5049940;28;19917;-58
2023/01/28 10:03:37;;;;;;;;;;;9.00;84.20;;;;;;5048024;28;20228;-58
2023/01/28 10:06:22;;;;;;;;;;;8.40;89.80;;;;;;5047882;28;20013;-57
2023/01/28 10:09:06;;;;;;;;;;;8.00;93.00;;;;;;5047236;28;20085;-57
2023/01/28 10:11:42;;;;;;;;;;;7.50;93.60;;;;;;5045781;28;19923;-58
2023/01/28 10:14:07;;;;;;;;;;;7.10;96.10;;;;;;5048862;28;20417;-58
2023/01/28 10:16:33;;;;;;;;;;;6.80;97.60;;;;;;5050455;28;19955;-57
2023/01/28 10:19:26;;;;;;;;;;;6.60;99.10;;;;;;5031278;28;19921;-57
2023/01/28 10:22:00;;;;;;;;;;;6.30;99.80;;;;;;5047549;28;19917;-57
2023/01/28 10:24:32;;;;;;;;;;;6.20;99.90;;;;;;5048945;28;19931;-57
2023/01/28 10:26:58;;;;;;;;;;;6.10;99.90;;;;;;5049051;28;20480;-56
2023/01/28 10:29:29;;;;;;;;;;;6.30;99.90;;;;;;5049348;28;19922;-57
2023/01/28 10:31:54;;;;;;;;;;;6.50;99.90;;;;;;5049411;28;19967;-56
2023/01/28 10:34:20;;;;;;;;;;;6.80;99.90;;;;;;5047451;28;19959;-56
2023/01/28 10:36:47;;;;;;;;;;;7.00;99.90;;;;;;5046796;28;19917;-57
2023/01/28 10:39:14;;;;;;;;;;;7.20;99.90;;;;;;5046860;28;20011;-57
2023/01/28 10:41:39;;;;;;;;;;;7.50;99.90;;;;;;5048636;28;19917;-58
2023/01/28 10:44:09;;;;;;;;;;;7.70;99.30;;;;;;5046039;28;20011;-58
2023/01/28 10:46:35;;;;;;;;;;;7.90;98.90;;;;;;5049704;28;19917;-54
2023/01/28 10:49:09;;;;;;;;;;;7.90;98.70;;;;;;5048908;28;19935;-57
2023/01/28 10:51:36;;;;;;;;;;;8.30;98.50;;;;;;5049414;28;20011;-57
2023/01/28 10:54:02;;;;;;;;;;;8.20;97.10;;;;;;5048604;28;20374;-57
2023/01/28 10:56:29;;;;;;;;;;;8.00;97.70;;;;;;5048751;28;20054;-57
2023/01/28 10:58:57;;;;;;;;;;;7.70;98.60;;;;;;5048217;28;20394;-57
2023/01/28 11:01:22;;;;;;;;;;;7.20;97.50;;;;;;5048921;28;19938;-57
2023/01/28 11:03:55;;;;;;;;;;;6.80;98.60;;;;;;5048996;28;19921;-57
2023/01/28 11:06:23;;;;;;;;;;;6.70;99.70;;;;;;5052846;28;19917;-57
2023/01/28 11:08:48;;;;;;;;;;;6.70;99.90;;;;;;5045042;28;19927;-55
2023/01/28 11:11:14;;;;;;;;;;;6.50;99.90;;;;;;5047617;28;19924;-57
2023/01/28 11:13:48;;;;;;;;;;;6.50;99.90;;;;;;5049926;28;20058;-57
2023/01/28 11:16:17;;;;;;;;;;;6.80;99.90;;;;;;5051644;28;20530;-58
2023/01/28 11:19:05;;;;;;;;;;;7.30;99.90;;;;;;5048254;28;19916;-57
2023/01/28 11:21:31;;;;;;;;;;;7.60;99.90;;;;;;5049959;28;20571;-57
2023/01/28 11:24:01;;;;;;;;;;;8.00;99.90;;;;;;5050514;28;20031;-57
2023/01/28 11:26:29;;;;;;;;;;;8.40;99.90;;;;;;5050293;28;19917;-57
2023/01/28 11:28:55;;;;;;;;;;;8.60;99.50;;;;;;5049878;28;19921;-57
2023/01/28 11:31:23;;;;;;;;;;;8.70;97.40;;;;;;5047436;28;20046;-57
2023/01/28 11:33:56;;;;;;;;;;;8.90;98.10;;;;;;5050734;28;19927;-57
2023/01/28 11:36:28;;;;;;;;;;;9.20;98.60;;;;;;5051003;28;19920;-58
2023/01/28 11:38:55;;;;;;;;;;;9.60;97.70;;;;;;5051361;28;19997;-58
2023/01/28 11:41:27;;;;;;;;;;;9.80;96.10;;;;;;5050082;28;20438;-58
2023/01/28 11:43:54;;;;;;;;;;;9.60;95.70;;;;;;5050668;28;19936;-57
2023/01/28 11:46:29;;;;;;;;;;;9.60;97.00;;;;;;5051659;28;19916;-57
2023/01/28 11:49:00;;;;;;;;;;;9.70;95.90;;;;;;5051587;28;19921;-59
2023/01/28 11:51:45;;;;;;;;;;;9.80;96.00;;;;;;5048710;28;19924;-57
2023/01/28 11:54:25;;;;;;;;;;;9.70;95.40;;;;;;5049223;28;19916;-55
2023/01/28 11:56:59;;;;;;;;;;;9.80;96.00;;;;;;5050024;28;20457;-59
2023/01/28 11:59:38;;;;;;;;;;;9.80;95.90;;;;;;5050902;28;19920;-59
2023/01/28 12:02:22;;;;;;;;;;;10.00;95.70;;;;;;5050639;28;19917;-57
2023/01/28 12:04:54;;;;;;;;;;;10.00;94.90;;;;;;5049792;28;19947;-56
2023/01/28 12:07:20;;;;;;;;;;;9.90;94.80;;;;;;5050132;28;20011;-57
2023/01/28 12:09:56;;;;;;;;;;;9.80;94.70;;;;;;5050655;28;19995;-59
2023/01/28 12:12:40;;;;;;;;;;;9.90;94.50;;;;;;5049921;28;19925;-57
2023/01/28 12:15:06;;;;;;;;;;;9.90;94.70;;;;;;5047052;28;20041;-58
2023/01/28 12:17:41;;;;;;;;;;;9.90;95.30;;;;;;5049544;28;20032;-57
2023/01/28 12:20:15;;;;;;;;;;;10.00;95.10;;;;;;5049837;28;19921;-58
2023/01/28 12:22:58;;;;;;;;;;;10.40;94.50;;;;;;5050183;28;19925;-58
2023/01/28 12:25:26;;;;;;;;;;;11.00;94.90;;;;;;5049705;28;19925;-59
2023/01/28 12:27:58;;;;;;;;;;;11.80;94.20;;;;;;5050188;28;19920;-59
2023/01/28 12:30:31;;;;;;;;;;;12.40;92.50;;;;;;5049440;28;19925;-57
2023/01/28 12:32:56;;;;;;;;;;;12.90;90.30;;;;;;5049928;28;20332;-58
2023/01/28 12:35:31;;;;;;;;;;;13.20;88.10;;;;;;5048056;28;19917;-58
2023/01/28 12:38:15;;;;;;;;;;;13.10;87.50;;;;;;5047706;28;19916;-58
2023/01/28 12:40:47;;;;;;;;;;;12.90;87.10;;;;;;5049597;28;20325;-59
2023/01/28 12:43:31;;;;;;;;;;;12.40;86.80;;;;;;5048982;28;19924;-59
2023/01/28 12:46:02;;;;;;;;;;;11.70;84.30;;;;;;5049687;28;19921;-56
2023/01/28 12:48:36;;;;;;;;;;;11.10;85.20;;;;;;5048708;28;20399;-59
2023/01/28 12:51:03;;;;;;;;;;;10.50;86.40;;;;;;5050313;28;19971;-59
2023/01/28 12:53:29;;;;;;;;;;;10.10;89.50;;;;;;5048938;28;20011;-57
2023/01/28 12:55:59;;;;;;;;;;;9.70;91.30;;;;;;5049200;28;20007;-58
2023/01/28 12:58:34;;;;;;;;;;;9.30;92.10;;;;;;5047534;28;19962;-58
2023/01/28 13:01:03;;;;;;;;;;;9.00;93.10;;;;;;5049971;28;19970;-59
2023/01/28 13:03:39;;;;;;;;;;;8.80;94.80;;;;;;5048521;28;19956;-58
2023/01/28 13:06:12;;;;;;;;;;;8.60;94.90;;;;;;5049252;28;19954;-59
2023/01/28 13:08:37;;;;;;;;;;;8.50;95.40;;;;;;5047858;28;20397;-56
2023/01/28 13:11:03;;;;;;;;;;;8.40;96.80;;;;;;5049749;28;20042;-56
2023/01/28 13:13:35;;;;;;;;;;;8.30;97.00;;;;;;5048488;28;19925;-58
2023/01/28 13:16:02;;;;;;;;;;;8.30;97.40;;;;;;5047687;28;19920;-57
2023/01/28 13:18:43;;;;;;;;;;;8.20;98.00;;;;;;5048828;28;19970;-58
2023/01/28 13:21:16;;;;;;;;;;;8.20;97.70;;;;;;5049052;28;19953;-57
2023/01/28 13:23:41;;;;;;;;;;;8.60;99.10;;;;;;5048342;28;19939;-58
2023/01/28 13:26:27;;;;;;;;;;;9.50;99.20;;;;;;5048782;28;19928;-58
2023/01/28 13:29:05;;;;;;;;;;;10.60;96.70;;;;;;5015804;28;19956;-57
2023/01/28 13:31:35;;;;;;;;;;;11.90;93.90;;;;;;5049307;28;19927;-58
2023/01/28 13:34:02;;;;;;;;;;;13.20;92.00;;;;;;5048105;28;21492;-58
2023/01/28 13:36:29;;;;;;;;;;;14.20;89.50;;;;;;5049164;28;19928;-60
2023/01/28 13:39:06;;;;;;;;;;;14.80;83.60;;;;;;5048444;28;19952;-59
2023/01/28 13:41:45;;;;;;;;;;;14.70;78.60;;;;;;5049185;28;19917;-58
2023/01/28 13:44:25;;;;;;;;;;;14.30;79.30;;;;;;5047682;28;20051;-58
2023/01/28 13:46:52;;;;;;;;;;;14.10;79.20;;;;;;5049079;28;19923;-58
2023/01/28 13:49:20;;;;;;;;;;;13.90;77.30;;;;;;5049279;28;20007;-58
2023/01/28 13:52:00;;;;;;;;;;;13.80;77.10;;;;;;5048874;28;20356;-57
2023/01/28 13:54:27;;;;;;;;;;;13.60;76.50;;;;;;5047944;28;19920;-58
2023/01/28 13:56:58;;;;;;;;;;;13.50;76.90;;;;;;5048967;28;19916;-59
2023/01/28 13:59:36;;;;;;;;;;;13.50;77.20;;;;;;5048438;28;20374;-57
2023/01/28 14:02:04;;;;;;;;;;;13.40;75.20;;;;;;5048255;28;19920;-58
2023/01/28 14:04:47;;;;;;;;;;;13.40;77.50;;;;;;5047829;28;19921;-58
2023/01/28 14:07:16;;;;;;;;;;;13.30;77.70;;;;;;5047025;28;19920;-59
2023/01/28 14:09:51;;;;;;;;;;;13.10;76.60;;;;;;5048560;28;19967;-57
2023/01/28 14:12:28;;;;;;;;;;;12.70;77.00;;;;;;5046953;28;19935;-57
2023/01/28 14:15:09;;;;;;;;;;;12.50;78.70;;;;;;5046074;28;19967;-58
2023/01/28 14:17:54;;;;;;;;;;;12.20;78.10;;;;;;5048207;28;19923;-58
2023/01/28 14:20:22;;;;;;;;;;;11.90;79.00;;;;;;5047908;28;19917;-58
2023/01/28 14:22:48;;;;;;;;;;;11.60;77.70;;;;;;5047845;28;20402;-60
2023/01/28 14:25:15;;;;;;;;;;;11.40;80.00;;;;;;5046920;28;19932;-58
2023/01/28 14:27:44;;;;;;;;;;;11.30;81.50;;;;;;5048253;28;20340;-60
2023/01/28 14:30:19;;;;;;;;;;;11.20;81.90;;;;;;5048297;28;19917;-59
2023/01/28 14:32:46;;;;;;;;;;;11.10;82.90;;;;;;5047793;28;19939;-58
2023/01/28 14:35:15;;;;;;;;;;;10.80;83.40;;;;;;5047154;28;19916;-60
2023/01/28 14:37:40;;;;;;;;;;;10.50;85.50;;;;;;5047892;28;20390;-59
2023/01/28 14:40:07;;;;;;;;;;;10.10;86.20;;;;;;5050666;28;19923;-59
2023/01/28 14:42:36;;;;;;;;;;;9.80;89.30;;;;;;5052356;28;19916;-56
2023/01/28 14:45:05;;;;;;;;;;;9.40;90.80;;;;;;5050975;28;19939;-57
2023/01/28 14:47:39;;;;;;;;;;;9.20;92.60;;;;;;5051773;28;19924;-58
2023/01/28 14:50:10;;;;;;;;;;;9.30;94.90;;;;;;5051839;28;19921;-56
2023/01/28 14:52:35;;;;;;;;;;;9.90;95.70;;;;;;5051903;28;19949;-54
2023/01/28 14:55:13;;;;;;;;;;;10.30;94.50;;;;;;5050689;28;19916;-58
2023/01/28 14:57:54;;;;;;;;;;;10.20;93.70;;;;;;5051103;28;19924;-56
2023/01/28 15:00:27;;;;;;;;;;;9.80;93.60;;;;;;5049498;28;19917;-56
2023/01/28 15:02:53;;;;;;;;;;;9.40;93.80;;;;;;5051495;28;19964;-57